Time;durP1;ratioP1;P1;durP2;ratioP2;P2;SDS_P1;SDS_P2;PMS_P1;PMS_P2;Temp;Humidity;BMP_temperature;BMP_pressure;BME280_temperature;BME280_humidity;BME280_pressure;Samples;Min_cycle;Max_cycle;Signal;HPM_P1;HPM_P2
2022/12/09 00:01:31;;;;;;;;;;;;;;;0.99;96.49;98329.28;10243187;23;20003;-76
2022/12/09 00:05:33;;;;;;;;;;;;;;;1.03;97.46;98331.03;10251475;23;19928;-76
2022/12/09 00:09:34;;;;;;;;;;;;;;;0.97;96.92;98325.84;10249704;23;19999;-76
2022/12/09 00:13:36;;;;;;;;;;;;;;;0.93;97.05;98327.47;10225614;23;19951;-75
2022/12/09 00:17:38;;;;;;;;;;;;;;;0.94;96.48;98323.22;10245489;23;19920;-76
2022/12/09 00:21:40;;;;;;;;;;;;;;;0.93;96.23;98331.72;10251258;23;19978;-76
2022/12/09 00:25:41;;;;;;;;;;;;;;;0.92;96.75;98322.34;10253883;23;19963;-76
2022/12/09 00:29:43;;;;;;;;;;;;;;;0.94;96.58;98318.13;10252214;23;19927;-76
2022/12/09 00:33:45;;;;;;;;;;;;;;;0.97;97.18;98307.94;10200898;22;19975;-75
2022/12/09 00:37:46;;;;;;;;;;;;;;;0.96;96.67;98301.13;10200558;23;19963;-76
2022/12/09 00:41:48;;;;;;;;;;;;;;;0.97;97.04;98306.25;10200663;23;19924;-76
2022/12/09 00:45:50;;;;;;;;;;;;;;;0.99;97.88;98298.59;10199369;23;20370;-76
2022/12/09 00:49:51;;;;;;;;;;;;;;;1.02;97.32;98301.19;10176243;23;19924;-76
2022/12/09 00:53:54;;;;;;;;;;;;;;;1.03;97.34;98297.81;10201825;23;20524;-76
2022/12/09 00:57:56;;;;;;;;;;;;;;;1.07;97.17;98297.00;10227704;23;19982;-76
2022/12/09 01:01:58;;;;;;;;;;;;;;;1.04;96.61;98300.38;10194660;23;19936;-76
2022/12/09 01:05:59;;;;;;;;;;;;;;;0.97;97.03;98296.03;10200662;23;19924;-76
2022/12/09 01:10:01;;;;;;;;;;;;;;;0.97;96.80;98295.16;10199948;23;20007;-76
2022/12/09 01:14:03;;;;;;;;;;;;;;;0.95;96.36;98289.19;10199825;23;20016;-76
2022/12/09 01:18:05;;;;;;;;;;;;;;;0.96;97.51;98284.09;10192211;23;19989;-76
2022/12/09 01:22:06;;;;;;;;;;;;;;;0.99;97.35;98286.69;10198588;23;19935;-76
2022/12/09 01:26:08;;;;;;;;;;;;;;;1.03;97.58;98282.47;10175472;23;19924;-76
2022/12/09 01:30:11;;;;;;;;;;;;;;;1.05;97.86;98284.22;10194104;23;20026;-76
2022/12/09 01:34:13;;;;;;;;;;;;;;;1.03;97.67;98285.03;10176962;23;20323;-76
2022/12/09 01:38:15;;;;;;;;;;;;;;;1.04;97.29;98279.06;10203050;23;19978;-76
2022/12/09 01:42:17;;;;;;;;;;;;;;;1.05;97.90;98275.69;10201908;23;19928;-76
2022/12/09 01:46:19;;;;;;;;;;;;;;;1.05;97.32;98278.25;10171916;23;20008;-76
2022/12/09 01:50:21;;;;;;;;;;;;;;;1.03;97.65;98274.81;10176840;23;20003;-76
2022/12/09 01:54:24;;;;;;;;;;;;;;;0.99;97.25;98266.25;10202519;23;20575;-76
2022/12/09 01:58:26;;;;;;;;;;;;;;;0.98;96.79;98258.56;10203598;23;19924;-76
2022/12/09 02:02:29;;;;;;;;;;;;;;;0.96;97.25;98258.53;10175929;23;19920;-76
2022/12/09 02:06:30;;;;;;;;;;;;;;;0.88;96.90;98252.44;10202504;23;20000;-76
2022/12/09 02:10:35;;;;;;;;;;;;;;;0.69;96.10;98247.88;10179911;23;19928;-76
2022/12/09 02:14:49;;;;;;;;;;;;;;;0.63;96.08;98243.53;10199905;23;19924;-76
2022/12/09 02:18:56;;;;;;;;;;;;;;;0.58;96.21;98243.47;10193262;23;19956;-77
2022/12/09 02:22:58;;;;;;;;;;;;;;;0.47;96.05;98242.41;10200344;23;20562;-76
2022/12/09 02:27:16;;;;;;;;;;;;;;;0.39;96.02;98241.44;10201423;23;20007;-76
2022/12/09 02:31:33;;;;;;;;;;;;;;;0.26;95.46;98240.34;10222417;23;20007;-76
2022/12/09 02:35:42;;;;;;;;;;;;;;;0.17;95.59;98231.66;10151419;23;20268;-76
2022/12/09 02:40:04;;;;;;;;;;;;;;;0.12;95.58;98228.16;10200602;23;19924;-77
2022/12/09 02:44:09;;;;;;;;;;;;;;;0.03;96.01;98211.03;10175625;23;19952;-76
2022/12/09 02:48:12;;;;;;;;;;;;;;;-0.02;96.24;98205.81;10195740;23;20445;-76
2022/12/09 02:52:15;;;;;;;;;;;;;;;-0.09;95.82;98210.78;10176170;23;19921;-76
2022/12/09 02:56:17;;;;;;;;;;;;;;;-0.13;96.06;98219.22;10178240;23;20424;-76
2022/12/09 03:00:19;;;;;;;;;;;;;;;-0.17;95.85;98199.59;10171399;23;19928;-75
2022/12/09 03:04:22;;;;;;;;;;;;;;;-0.21;96.05;98211.41;10181050;23;20003;-75
2022/12/09 03:08:27;;;;;;;;;;;;;;;-0.19;96.40;98207.19;10204316;23;20474;-76
2022/12/09 03:12:32;;;;;;;;;;;;;;;-0.17;97.03;98203.00;10178859;23;20326;-75
2022/12/09 03:16:33;;;;;;;;;;;;;;;-0.17;97.28;98199.59;10177049;23;19959;-76
2022/12/09 03:20:37;;;;;;;;;;;;;;;-0.10;97.67;98191.22;10180198;23;19998;-76
2022/12/09 03:24:43;;;;;;;;;;;;;;;-0.12;97.32;98185.22;10183790;23;20007;-76
2022/12/09 03:28:48;;;;;;;;;;;;;;;-0.05;97.62;98190.44;10208285;23;20400;-76
2022/12/09 03:32:50;;;;;;;;;;;;;;;-0.02;97.69;98189.66;10177717;23;19931;-75
2022/12/09 03:36:52;;;;;;;;;;;;;;;0.09;98.14;98195.81;10181088;23;20372;-75
2022/12/09 03:41:02;;;;;;;;;;;;;;;0.20;98.48;98176.44;10180006;23;20253;-76
2022/12/09 03:45:09;;;;;;;;;;;;;;;0.33;99.05;98176.63;10200945;23;20004;-76
2022/12/09 03:49:11;;;;;;;;;;;;;;;0.44;99.19;98175.97;10181566;23;19951;-76
2022/12/09 03:53:14;;;;;;;;;;;;;;;0.54;99.07;98179.56;10182449;23;19936;-76
2022/12/09 03:57:17;;;;;;;;;;;;;;;0.62;99.71;98179.66;10183079;23;20003;-76
2022/12/09 04:01:22;;;;;;;;;;;;;;;0.69;99.51;98184.88;10199857;23;19924;-75
2022/12/09 04:05:24;;;;;;;;;;;;;;;0.77;99.03;98182.44;10177727;23;20271;-75
2022/12/09 04:09:25;;;;;;;;;;;;;;;0.82;98.96;98175.69;10176081;23;19921;-76
2022/12/09 04:13:27;;;;;;;;;;;;;;;0.88;99.12;98170.66;10176096;23;19939;-75
2022/12/09 04:17:29;;;;;;;;;;;;;;;0.91;98.76;98170.72;10193453;23;19955;-75
2022/12/09 04:21:31;;;;;;;;;;;;;;;0.95;98.72;98167.38;10176078;23;19924;-75
2022/12/09 04:25:32;;;;;;;;;;;;;;;0.97;99.09;98168.25;10152114;23;19927;-75
2022/12/09 04:29:34;;;;;;;;;;;;;;;0.99;98.91;98158.03;10175003;23;19994;-76
2022/12/09 04:33:35;;;;;;;;;;;;;;;0.98;98.51;98151.22;10171724;23;19924;-75
2022/12/09 04:37:36;;;;;;;;;;;;;;;0.96;98.57;98153.75;10200752;23;20027;-75
2022/12/09 04:41:38;;;;;;;;;;;;;;;0.93;98.21;98153.72;10200147;23;19930;-76
2022/12/09 04:45:39;;;;;;;;;;;;;;;0.89;97.65;98140.00;10195139;23;19928;-76
2022/12/09 04:49:41;;;;;;;;;;;;;;;0.92;97.54;98144.34;10176397;23;19935;-76
2022/12/09 04:53:43;;;;;;;;;;;;;;;0.93;97.86;98135.84;10176835;23;20002;-76
2022/12/09 04:57:44;;;;;;;;;;;;;;;0.92;98.00;98133.25;10176703;23;19940;-76
2022/12/09 05:01:46;;;;;;;;;;;;;;;0.86;97.26;98132.31;10195090;23;19924;-76
2022/12/09 05:05:48;;;;;;;;;;;;;;;0.85;97.91;98132.31;10202562;23;20003;-76
2022/12/09 05:09:51;;;;;;;;;;;;;;;0.82;96.89;98129.72;10228071;23;20334;-76
2022/12/09 05:13:53;;;;;;;;;;;;;;;0.79;97.37;98120.31;10230135;23;19998;-76
2022/12/09 05:17:56;;;;;;;;;;;;;;;0.78;96.81;98126.25;10199459;23;20274;-77
2022/12/09 05:21:57;;;;;;;;;;;;;;;0.81;97.04;98126.28;10175964;23;20383;-77
2022/12/09 05:26:03;;;;;;;;;;;;;;;0.83;96.67;98133.97;10203847;23;19928;-77
2022/12/09 05:30:05;;;;;;;;;;;;;;;0.85;96.65;98128.03;10174318;23;20007;-76
2022/12/09 05:34:07;;;;;;;;;;;;;;;0.84;96.95;98125.47;10174914;23;19948;-76
2022/12/09 05:38:09;;;;;;;;;;;;;;;0.85;97.09;98127.19;10200548;23;20420;-76
2022/12/09 05:42:10;;;;;;;;;;;;;;;0.86;96.60;98132.31;10175584;23;20014;-76
2022/12/09 05:46:13;;;;;;;;;;;;;;;0.87;96.47;98125.50;10197649;23;20000;-77
2022/12/09 05:50:15;;;;;;;;;;;;;;;0.86;96.78;98124.66;10226452;23;19985;-76
2022/12/09 05:54:17;;;;;;;;;;;;;;;0.85;96.07;98119.53;10177105;23;19963;-76
2022/12/09 05:58:19;;;;;;;;;;;;;;;0.86;96.30;98121.25;10202018;23;20364;-76
2022/12/09 06:02:20;;;;;;;;;;;;;;;0.86;96.31;98124.66;10170592;23;20371;-76
2022/12/09 06:06:25;;;;;;;;;;;;;;;0.81;95.90;98120.31;10226479;23;20031;-77
2022/12/09 06:10:28;;;;;;;;;;;;;;;0.77;96.10;98123.69;10175938;23;19978;-76
2022/12/09 06:14:30;;;;;;;;;;;;;;;0.71;96.13;98121.03;10174953;23;19924;-76
2022/12/09 06:18:31;;;;;;;;;;;;;;;0.67;95.12;98125.25;10220632;23;20777;-77
2022/12/09 06:22:35;;;;;;;;;;;;;;;0.60;94.81;98123.44;10176594;23;19982;-76
2022/12/09 06:26:36;;;;;;;;;;;;;;;0.55;95.14;98107.22;10199457;23;19931;-76
2022/12/09 06:30:38;;;;;;;;;;;;;;;0.43;94.96;98107.88;10218906;23;19924;-76
2022/12/09 06:34:40;;;;;;;;;;;;;;;0.33;94.97;98106.00;10199857;23;20411;-77
2022/12/09 06:38:42;;;;;;;;;;;;;;;0.28;95.19;98100.84;10200593;23;19951;-76
2022/12/09 06:42:44;;;;;;;;;;;;;;;0.15;94.68;98103.16;10175420;23;20342;-76
2022/12/09 06:46:45;;;;;;;;;;;;;;;0.06;94.65;98092.84;10172608;23;20416;-76
2022/12/09 06:50:48;;;;;;;;;;;;;;;-0.06;94.78;98096.03;10224091;23;19928;-76
2022/12/09 06:54:50;;;;;;;;;;;;;;;-0.12;95.04;98099.34;10225507;23;19924;-76
2022/12/09 06:58:52;;;;;;;;;;;;;;;-0.16;95.05;98096.72;10178131;23;19982;-76
2022/12/09 07:02:53;;;;;;;;;;;;;;;-0.24;94.92;98096.59;10200863;23;19990;-79
2022/12/09 07:06:56;;;;;;;;;;;;;;;-0.25;95.22;98097.41;10206619;23;19920;-77
2022/12/09 07:10:57;;;;;;;;;;;;;;;-0.22;95.51;98104.25;10181022;23;20570;-77
2022/12/09 07:14:59;;;;;;;;;;;;;;;-0.27;95.78;98106.75;10233447;23;19928;-77
2022/12/09 07:19:04;;;;;;;;;;;;;;;-0.28;96.29;98109.25;10205420;23;19924;-78
2022/12/09 07:23:05;;;;;;;;;;;;;;;-0.27;96.63;98106.75;10206626;23;20003;-79
2022/12/09 07:27:08;;;;;;;;;;;;;;;-0.25;96.47;98114.41;10183885;23;20007;-79
2022/12/09 07:31:17;;;;;;;;;;;;;;;-0.29;96.62;98108.41;10199187;23;19924;-79
2022/12/09 07:35:19;;;;;;;;;;;;;;;-0.29;97.03;98115.19;10182975;23;20008;-79
2022/12/09 07:39:21;;;;;;;;;;;;;;;-0.30;96.90;98119.44;10205918;23;20007;-78
2022/12/09 07:43:23;;;;;;;;;;;;;;;-0.28;96.91;98111.81;10230704;23;19974;-79
2022/12/09 07:47:24;;;;;;;;;;;;;;;-0.26;97.08;98107.59;10198770;23;19921;-79
2022/12/09 07:51:28;;;;;;;;;;;;;;;-0.26;96.97;98113.56;10205500;23;19948;-79
2022/12/09 07:55:32;;;;;;;;;;;;;;;-0.34;96.81;98103.22;10207707;23;20019;-79
2022/12/09 07:59:33;;;;;;;;;;;;;;;-0.38;96.40;98106.53;10180251;23;19935;-78
2022/12/09 08:03:35;;;;;;;;;;;;;;;-0.38;96.64;98109.09;10180648;23;20002;-78
2022/12/09 08:07:37;;;;;;;;;;;;;;;-0.34;96.55;98115.97;10181178;23;20006;-78
2022/12/09 08:11:44;;;;;;;;;;;;;;;-0.35;96.75;98109.16;10179049;23;19924;-80
2022/12/09 08:15:47;;;;;;;;;;;;;;;-0.36;96.26;98107.44;10174059;23;19995;-80
2022/12/09 08:19:49;;;;;;;;;;;;;;;-0.36;96.24;98104.91;10179091;23;19927;-80
2022/12/09 08:23:53;;;;;;;;;;;;;;;-0.35;96.31;98100.66;10205987;23;19986;-80
2022/12/09 08:27:55;;;;;;;;;;;;;;;-0.34;96.42;98093.03;10181706;23;20193;-80
2022/12/09 08:31:56;;;;;;;;;;;;;;;-0.31;96.66;98089.69;10176097;23;19999;-80
2022/12/09 08:35:59;;;;;;;;;;;;;;;-0.30;96.55;98086.28;10182630;23;19925;-78
2022/12/09 08:40:00;;;;;;;;;;;;;;;-0.25;96.80;98083.81;10156955;23;19970;-77
2022/12/09 08:44:04;;;;;;;;;;;;;;;-0.26;96.76;98089.75;10205908;23;20321;-78
2022/12/09 08:48:06;;;;;;;;;;;;;;;-0.26;96.51;98090.59;10173297;23;19936;-77
2022/12/09 08:52:08;;;;;;;;;;;;;;;-0.24;96.47;98091.47;10205218;23;20391;-77
2022/12/09 08:56:10;;;;;;;;;;;;;;;-0.24;96.22;98082.97;10182825;23;19924;-76
2022/12/09 09:00:13;;;;;;;;;;;;;;;-0.22;96.23;98087.25;10197852;23;19947;-77
2022/12/09 09:04:17;;;;;;;;;;;;;;;-0.12;96.35;98094.25;10180765;23;19921;-76
2022/12/09 09:08:19;;;;;;;;;;;;;;;-0.04;96.25;98090.13;10181439;23;19921;-76
2022/12/09 09:12:21;;;;;;;;;;;;;;;-0.02;96.40;98088.44;10206207;23;19924;-76
2022/12/09 09:16:25;;;;;;;;;;;;;;;0.07;96.53;98082.66;10206023;23;19924;-78
2022/12/09 09:20:27;;;;;;;;;;;;;;;0.18;96.50;98077.69;10179134;23;19968;-78
2022/12/09 09:24:30;;;;;;;;;;;;;;;0.29;96.11;98087.25;10181372;23;20056;-78
2022/12/09 09:28:32;;;;;;;;;;;;;;;0.39;95.99;98077.19;10181330;23;19936;-78
2022/12/09 09:32:34;;;;;;;;;;;;;;;0.45;95.62;98082.38;10174690;23;19955;-78
2022/12/09 09:36:36;;;;;;;;;;;;;;;0.54;95.64;98091.03;10179580;23;20352;-78
2022/12/09 09:40:39;;;;;;;;;;;;;;;0.68;94.87;98091.19;10179150;23;19924;-78
2022/12/09 09:44:45;;;;;;;;;;;;;;;0.79;94.72;98086.25;10181324;23;19928;-78
2022/12/09 09:48:46;;;;;;;;;;;;;;;0.87;94.34;98089.75;10196890;23;20220;-78
2022/12/09 09:52:51;;;;;;;;;;;;;;;0.92;93.91;98098.34;10174306;23;19983;-78
2022/12/09 09:56:56;;;;;;;;;;;;;;;0.86;93.60;98088.03;10179086;23;20000;-78
2022/12/09 10:01:02;;;;;;;;;;;;;;;0.88;92.74;98084.66;10171706;23;19986;-76
2022/12/09 10:05:30;;;;;;;;;;;;;;;0.94;92.97;98083.88;10179387;23;20339;-77
2022/12/09 10:10:37;;;;;;;;;;;;;;;0.95;92.25;98074.53;10172832;23;19929;-79
2022/12/09 10:14:48;;;;;;;;;;;;;;;1.01;92.78;98074.59;10180145;23;20020;-79
2022/12/09 10:19:07;;;;;;;;;;;;;;;1.16;92.62;98070.50;10173982;23;19932;-79
2022/12/09 10:23:13;;;;;;;;;;;;;;;1.26;92.49;98066.38;10203394;23;19924;-79
2022/12/09 10:27:34;;;;;;;;;;;;;;;1.33;92.07;98059.63;10194559;23;20008;-79
2022/12/09 10:31:37;;;;;;;;;;;;;;;1.37;91.20;98051.13;10175001;23;19920;-79
2022/12/09 10:35:39;;;;;;;;;;;;;;;1.38;91.49;98042.63;10179523;23;20368;-79
2022/12/09 10:39:41;;;;;;;;;;;;;;;1.28;90.64;98048.50;10178723;23;19939;-79
2022/12/09 10:43:43;;;;;;;;;;;;;;;1.20;90.81;98046.69;10203785;23;19921;-79
2022/12/09 10:47:48;;;;;;;;;;;;;;;1.19;90.75;98041.56;10149790;23;19931;-79
2022/12/09 10:51:52;;;;;;;;;;;;;;;1.13;91.32;98042.38;10202608;23;19921;-78
2022/12/09 10:55:55;;;;;;;;;;;;;;;1.20;92.04;98046.69;10178762;23;20269;-78
2022/12/09 11:00:00;;;;;;;;;;;;;;;1.27;92.22;98036.56;10177774;23;19932;-79
2022/12/09 11:04:11;;;;;;;;;;;;;;;1.33;92.09;98037.47;10177805;23;20237;-79
2022/12/09 11:08:20;;;;;;;;;;;;;;;1.36;92.09;98037.50;10203837;23;19924;-79
2022/12/09 11:12:27;;;;;;;;;;;;;;;1.37;91.51;98034.09;10202987;23;20003;-78
2022/12/09 11:16:38;;;;;;;;;;;;;;;1.34;91.21;98030.66;10197969;23;19956;-79
2022/12/09 11:20:40;;;;;;;;;;;;;;;1.41;91.18;98027.28;10178226;23;19933;-79
2022/12/09 11:24:42;;;;;;;;;;;;;;;1.47;91.32;98029.94;10177440;23;19996;-79
2022/12/09 11:28:57;;;;;;;;;;;;;;;1.52;91.14;98029.13;10177601;23;20016;-79
2022/12/09 11:32:59;;;;;;;;;;;;;;;1.57;90.16;98020.63;10171592;23;19987;-79
2022/12/09 11:37:01;;;;;;;;;;;;;;;1.63;89.87;98013.88;10153773;23;19920;-79
2022/12/09 11:41:12;;;;;;;;;;;;;;;1.71;89.84;98008.81;10176879;23;20324;-79
2022/12/09 11:45:29;;;;;;;;;;;;;;;1.77;89.54;98016.53;10154495;23;19924;-78
2022/12/09 11:49:58;;;;;;;;;;;;;;;1.76;88.75;98019.94;10108731;23;19932;-78
2022/12/09 11:54:13;;;;;;;;;;;;;;;1.81;88.27;98018.31;10123286;23;19940;-78
2022/12/09 11:58:22;;;;;;;;;;;;;;;1.89;88.03;98016.66;10132943;23;19932;-79
2022/12/09 12:02:28;;;;;;;;;;;;;;;1.94;88.13;98012.41;10100959;23;19936;-79
2022/12/09 12:06:40;;;;;;;;;;;;;;;1.97;87.27;98016.69;10158247;23;19964;-79
2022/12/09 12:10:43;;;;;;;;;;;;;;;2.02;87.39;98012.47;10155401;23;19936;-80
2022/12/09 12:14:45;;;;;;;;;;;;;;;2.07;86.89;98021.03;10181011;23;19990;-79
2022/12/09 12:18:55;;;;;;;;;;;;;;;2.15;86.74;98013.41;10173938;23;20713;-79
2022/12/09 12:23:04;;;;;;;;;;;;;;;2.17;86.42;98010.03;10155423;23;19960;-79
2022/12/09 12:27:14;;;;;;;;;;;;;;;2.20;85.67;98011.75;10157324;23;19920;-78
2022/12/09 12:31:31;;;;;;;;;;;;;;;2.24;84.83;98006.66;10148949;23;19924;-79
2022/12/09 12:35:33;;;;;;;;;;;;;;;2.37;84.98;98002.47;10182735;23;19924;-79
2022/12/09 12:39:48;;;;;;;;;;;;;;;2.46;84.85;97997.38;10153172;23;19924;-79
2022/12/09 12:48:36;;;;;;;;;;;;;;;2.65;84.65;97999.16;10173010;23;19925;-79
2022/12/09 12:52:58;;;;;;;;;;;;;;;2.64;83.61;97992.34;10176798;23;19956;-79
2022/12/09 12:57:02;;;;;;;;;;;;;;;2.60;82.92;97997.44;10203215;23;20000;-79
2022/12/09 13:01:21;;;;;;;;;;;;;;;2.56;82.90;98000.84;10175025;23;19925;-79
2022/12/09 13:05:30;;;;;;;;;;;;;;;2.53;82.91;98001.69;10181239;23;19931;-78
2022/12/09 13:09:40;;;;;;;;;;;;;;;2.53;83.03;97995.72;10176414;23;19952;-78
2022/12/09 13:13:45;;;;;;;;;;;;;;;2.47;82.54;98004.22;10201492;23;19927;-78
2022/12/09 13:17:47;;;;;;;;;;;;;;;2.39;81.64;97998.19;10145921;23;19921;-78
2022/12/09 13:21:48;;;;;;;;;;;;;;;2.36;81.76;97993.06;10174776;23;19924;-78
2022/12/09 13:26:09;;;;;;;;;;;;;;;2.35;81.84;97996.47;10176990;23;20606;-78
2022/12/09 13:30:19;;;;;;;;;;;;;;;2.38;82.10;97994.78;10171927;23;19999;-78
2022/12/09 13:34:31;;;;;;;;;;;;;;;2.46;82.14;97991.41;10201734;23;19924;-78
2022/12/09 13:38:35;;;;;;;;;;;;;;;2.43;81.55;97985.41;10153484;23;19924;-76
2022/12/09 13:42:57;;;;;;;;;;;;;;;2.40;80.84;97989.66;10177643;23;19999;-76
2022/12/09 13:47:18;;;;;;;;;;;;;;;2.38;80.86;97984.53;10153259;23;20402;-78
2022/12/09 13:51:31;;;;;;;;;;;;;;;2.35;80.48;97978.56;10127951;23;20533;-78
2022/12/09 13:55:54;;;;;;;;;;;;;;;2.31;80.66;97985.34;10153367;23;19924;-78
2022/12/09 14:00:00;;;;;;;;;;;;;;;2.32;80.83;97981.94;10177797;23;19999;-77
2022/12/09 14:04:07;;;;;;;;;;;;;;;2.30;80.30;97985.34;10124896;23;19931;-78
2022/12/09 14:08:19;;;;;;;;;;;;;;;2.27;80.23;97978.50;10152931;23;19921;-79
2022/12/09 14:12:24;;;;;;;;;;;;;;;2.27;80.18;97988.72;10153707;23;20185;-78
2022/12/09 14:16:25;;;;;;;;;;;;;;;2.25;79.92;97985.31;10173216;23;19978;-78
2022/12/09 14:20:29;;;;;;;;;;;;;;;2.25;80.27;97987.88;10128605;23;19925;-79
2022/12/09 14:24:38;;;;;;;;;;;;;;;2.24;80.28;97993.84;10181345;23;19928;-79
2022/12/09 14:28:51;;;;;;;;;;;;;;;2.24;80.70;97995.56;10165292;23;19924;-78
2022/12/09 14:32:54;;;;;;;;;;;;;;;2.22;80.46;97999.81;10148899;23;19925;-78
2022/12/09 14:37:13;;;;;;;;;;;;;;;2.19;80.05;98000.66;10177047;23;19966;-78
2022/12/09 14:41:28;;;;;;;;;;;;;;;2.17;80.16;97999.78;10176827;23;19963;-78
2022/12/09 14:45:35;;;;;;;;;;;;;;;2.13;79.59;98006.56;10123486;23;20197;-78
2022/12/09 14:49:37;;;;;;;;;;;;;;;2.11;80.23;98010.81;10152565;23;19921;-78
2022/12/09 14:53:52;;;;;;;;;;;;;;;2.04;80.25;98024.44;10176692;23;19962;-78
2022/12/09 14:57:56;;;;;;;;;;;;;;;2.03;80.77;98024.44;10150957;23;19925;-78
2022/12/09 15:02:01;;;;;;;;;;;;;;;1.98;81.02;98024.41;10151932;23;19967;-78
2022/12/09 15:06:04;;;;;;;;;;;;;;;1.96;81.75;98020.09;10129311;23;19925;-78
2022/12/09 15:10:15;;;;;;;;;;;;;;;1.88;82.15;98029.44;10129381;23;20493;-77
2022/12/09 15:14:26;;;;;;;;;;;;;;;1.81;82.01;98029.41;10104925;23;19936;-78
2022/12/09 15:18:29;;;;;;;;;;;;;;;1.74;82.49;98035.28;10076601;23;20505;-77
2022/12/09 15:22:31;;;;;;;;;;;;;;;1.68;82.69;98034.38;10131316;23;19960;-77
2022/12/09 15:26:33;;;;;;;;;;;;;;;1.61;83.56;98043.69;10108686;23;19925;-75
2022/12/09 15:30:35;;;;;;;;;;;;;;;1.55;83.26;98037.66;10076202;23;20241;-78
2022/12/09 15:34:37;;;;;;;;;;;;;;;1.50;83.14;98047.88;10107021;23;20312;-75
2022/12/09 15:38:44;;;;;;;;;;;;;;;1.40;83.30;98041.78;10083100;23;19924;-76
2022/12/09 15:42:47;;;;;;;;;;;;;;;1.32;83.81;98047.69;10131263;23;20289;-76
2022/12/09 15:46:50;;;;;;;;;;;;;;;1.30;84.20;98059.59;10126829;23;19925;-76
2022/12/09 15:50:57;;;;;;;;;;;;;;;1.27;84.47;98057.88;10103478;23;19990;-76
2022/12/09 15:55:05;;;;;;;;;;;;;;;1.17;84.92;98058.59;10107628;23;19925;-76
2022/12/09 15:59:15;;;;;;;;;;;;;;;1.16;85.98;98059.44;10132973;23;19924;-76
2022/12/09 16:03:30;;;;;;;;;;;;;;;1.12;86.96;98055.13;10126418;23;19953;-76
2022/12/09 16:07:32;;;;;;;;;;;;;;;1.06;87.29;98057.59;10129925;23;19992;-76
2022/12/09 16:11:35;;;;;;;;;;;;;;;0.97;87.36;98057.50;10105118;23;19921;-76
2022/12/09 16:15:47;;;;;;;;;;;;;;;0.92;87.85;98056.59;10097796;23;20013;-76
2022/12/09 16:19:52;;;;;;;;;;;;;;;0.85;88.48;98048.00;10131233;23;19924;-76
2022/12/09 16:23:55;;;;;;;;;;;;;;;0.73;88.58;98052.97;10131256;23;19936;-76
2022/12/09 16:27:59;;;;;;;;;;;;;;;0.67;88.76;98047.75;10103135;23;20011;-76
2022/12/09 16:32:17;;;;;;;;;;;;;;;0.60;89.34;98050.25;10123857;23;19925;-76
2022/12/09 16:36:22;;;;;;;;;;;;;;;0.56;89.10;98050.19;10070611;23;20356;-76
2022/12/09 16:40:23;;;;;;;;;;;;;;;0.53;89.35;98050.97;10082213;23;19925;-76
2022/12/09 16:44:29;;;;;;;;;;;;;;;0.51;88.95;98055.22;10059255;23;19979;-77
2022/12/09 16:48:31;;;;;;;;;;;;;;;0.41;88.97;98055.09;10077118;23;20007;-75
2022/12/09 16:52:32;;;;;;;;;;;;;;;0.26;89.12;98058.28;10052912;23;19925;-76
2022/12/09 16:56:34;;;;;;;;;;;;;;;0.16;89.08;98064.06;10032831;23;19960;-75
2022/12/09 17:00:41;;;;;;;;;;;;;;;0.10;89.63;98071.63;10077114;23;19984;-75
2022/12/09 17:04:43;;;;;;;;;;;;;;;-0.01;89.23;98076.56;10082140;23;19932;-75
2022/12/09 17:08:44;;;;;;;;;;;;;;;-0.22;89.23;98079.63;10080313;23;19921;-75
2022/12/09 17:12:46;;;;;;;;;;;;;;;-0.24;90.26;98077.88;10081108;23;19936;-75
2022/12/09 17:16:48;;;;;;;;;;;;;;;-0.34;90.41;98084.53;10099198;23;20474;-75
2022/12/09 17:20:49;;;;;;;;;;;;;;;-0.35;90.98;98093.88;10104835;23;20012;-75
2022/12/09 17:24:51;;;;;;;;;;;;;;;-0.35;91.22;98095.56;10130681;23;20020;-75
2022/12/09 17:28:52;;;;;;;;;;;;;;;-0.39;91.23;98093.75;10104359;23;20209;-75
2022/12/09 17:33:01;;;;;;;;;;;;;;;-0.41;91.61;98091.19;10073490;23;20524;-75
2022/12/09 17:37:03;;;;;;;;;;;;;;;-0.45;91.13;98094.53;10173732;23;20003;-75
2022/12/09 17:41:05;;;;;;;;;;;;;;;-0.50;91.64;98095.28;10151601;23;19983;-75
2022/12/09 17:45:07;;;;;;;;;;;;;;;-0.52;91.61;98092.72;10174835;23;20343;-75
2022/12/09 17:49:08;;;;;;;;;;;;;;;-0.56;91.49;98100.25;10152484;23;19943;-75
2022/12/09 17:53:10;;;;;;;;;;;;;;;-0.60;92.12;98106.97;10151848;23;19928;-75
2022/12/09 17:57:11;;;;;;;;;;;;;;;-0.60;92.16;98104.44;10152443;23;20359;-74
2022/12/09 18:01:13;;;;;;;;;;;;;;;-0.59;92.31;98105.28;10150134;23;19928;-75
2022/12/09 18:05:15;;;;;;;;;;;;;;;-0.59;92.49;98111.25;10152189;23;19932;-75
2022/12/09 18:09:17;;;;;;;;;;;;;;;-0.62;92.37;98113.75;10153351;23;20003;-75
2022/12/09 18:13:18;;;;;;;;;;;;;;;-0.62;92.60;98116.28;10127507;23;19952;-75
2022/12/09 18:17:20;;;;;;;;;;;;;;;-0.62;92.71;98117.16;10153585;23;19962;-74
2022/12/09 18:21:22;;;;;;;;;;;;;;;-0.61;92.89;98126.50;10147626;23;19955;-75
2022/12/09 18:25:24;;;;;;;;;;;;;;;-0.64;92.88;98128.16;10121800;23;19920;-75
2022/12/09 18:29:25;;;;;;;;;;;;;;;-0.65;92.84;98137.50;10145899;23;19963;-75
2022/12/09 18:33:27;;;;;;;;;;;;;;;-0.67;92.94;98130.66;10118176;23;19924;-75
2022/12/09 18:37:29;;;;;;;;;;;;;;;-0.67;92.99;98128.09;10171467;23;19970;-75
2022/12/09 18:41:31;;;;;;;;;;;;;;;-0.69;92.82;98138.25;10147349;23;19959;-75
2022/12/09 18:45:33;;;;;;;;;;;;;;;-0.69;93.53;98145.06;10144433;23;19931;-74
2022/12/09 18:49:35;;;;;;;;;;;;;;;-0.67;93.76;98141.69;10123887;23;19990;-75
2022/12/09 18:53:37;;;;;;;;;;;;;;;-0.65;93.76;98142.59;10150157;23;19928;-74
2022/12/09 18:57:38;;;;;;;;;;;;;;;-0.62;93.75;98140.09;10147841;23;19936;-74
2022/12/09 19:01:41;;;;;;;;;;;;;;;-0.57;93.95;98135.06;10136265;23;19925;-75
2022/12/09 19:05:42;;;;;;;;;;;;;;;-0.53;94.04;98138.56;10144010;23;20558;-75
2022/12/09 19:09:44;;;;;;;;;;;;;;;-0.50;93.98;98133.53;10144655;23;20471;-74
2022/12/09 19:13:46;;;;;;;;;;;;;;;-0.48;93.80;98135.25;10120921;23;19963;-75
2022/12/09 19:17:47;;;;;;;;;;;;;;;-0.48;94.35;98132.72;10137513;23;19924;-74
2022/12/09 19:21:49;;;;;;;;;;;;;;;-0.48;93.99;98135.25;10119701;23;19964;-74
2022/12/09 19:25:51;;;;;;;;;;;;;;;-0.43;94.46;98137.88;10120372;23;20016;-75
2022/12/09 19:29:52;;;;;;;;;;;;;;;-0.41;94.26;98146.41;10144045;23;19931;-75
2022/12/09 19:33:54;;;;;;;;;;;;;;;-0.37;93.90;98148.19;10137076;23;19983;-75
2022/12/09 19:37:56;;;;;;;;;;;;;;;-0.37;93.93;98145.63;10170558;23;20505;-75
2022/12/09 19:42:04;;;;;;;;;;;;;;;-0.35;94.06;98154.22;10147384;23;19971;-75
2022/12/09 19:46:06;;;;;;;;;;;;;;;-0.32;94.17;98157.66;10143048;23;19932;-75
2022/12/09 19:50:08;;;;;;;;;;;;;;;-0.28;93.88;98156.03;10124468;23;19959;-75
2022/12/09 19:54:10;;;;;;;;;;;;;;;-0.29;94.25;98161.97;10125444;23;19921;-75
2022/12/09 19:58:11;;;;;;;;;;;;;;;-0.25;94.28;98156.06;10122978;23;20399;-75
2022/12/09 20:02:13;;;;;;;;;;;;;;;-0.21;94.59;98151.88;10123524;23;19924;-75
2022/12/09 20:06:16;;;;;;;;;;;;;;;-0.20;94.71;98148.50;10129896;23;20355;-75
2022/12/09 20:10:17;;;;;;;;;;;;;;;-0.17;94.84;98161.34;10153463;23;20023;-75
2022/12/09 20:14:19;;;;;;;;;;;;;;;-0.15;94.68;98159.66;10130831;23;19999;-75
2022/12/09 20:18:20;;;;;;;;;;;;;;;-0.14;94.63;98163.94;10147213;23;20642;-75
2022/12/09 20:22:22;;;;;;;;;;;;;;;-0.12;94.74;98167.38;10152557;23;19924;-75
2022/12/09 20:26:34;;;;;;;;;;;;;;;-0.19;94.43;98176.59;10129093;23;19967;-75
2022/12/09 20:30:36;;;;;;;;;;;;;;;-0.19;94.34;98170.63;10146992;23;19995;-75
2022/12/09 20:34:37;;;;;;;;;;;;;;;-0.17;94.19;98177.50;10153822;23;19952;-75
2022/12/09 20:38:39;;;;;;;;;;;;;;;-0.14;94.49;98176.69;10152627;23;19924;-75
2022/12/09 20:42:40;;;;;;;;;;;;;;;-0.09;94.74;98182.72;10128196;23;20383;-75
2022/12/09 20:46:46;;;;;;;;;;;;;;;-0.12;94.83;98186.09;10173541;23;20404;-75
2022/12/09 20:50:48;;;;;;;;;;;;;;;-0.11;94.75;98180.16;10152245;23;20202;-75
2022/12/09 20:54:49;;;;;;;;;;;;;;;-0.07;94.73;98189.56;10178965;23;19932;-75
2022/12/09 20:58:52;;;;;;;;;;;;;;;-0.05;94.85;98185.34;10153255;23;20549;-75
2022/12/09 21:02:53;;;;;;;;;;;;;;;-0.02;95.15;98190.50;10147407;23;19995;-74
2022/12/09 21:06:56;;;;;;;;;;;;;;;0.01;95.06;98197.38;10176310;23;20193;-75
2022/12/09 21:11:08;;;;;;;;;;;;;;;0.01;94.93;98187.19;10146051;23;20735;-75